sensor_id;sensor_type;location;lat;lon;timestamp;P1;durP1;ratioP1;P2;durP2;ratioP2
78646;SDS011;67961;43.460;3.762;2023-06-19T00:02:20;12.45;;;6.60;;
78646;SDS011;67961;43.460;3.762;2023-06-19T00:04:47;9.10;;;5.65;;
78646;SDS011;67961;43.460;3.762;2023-06-19T00:07:13;15.40;;;7.07;;
78646;SDS011;67961;43.460;3.762;2023-06-19T00:09:39;15.23;;;6.55;;
78646;SDS011;67961;43.460;3.762;2023-06-19T00:12:05;10.57;;;5.32;;
78646;SDS011;67961;43.460;3.762;2023-06-19T00:14:31;10.00;;;5.93;;
78646;SDS011;67961;43.460;3.762;2023-06-19T00:16:57;9.35;;;6.03;;
78646;SDS011;67961;43.460;3.762;2023-06-19T00:19:26;11.35;;;6.13;;
78646;SDS011;67961;43.460;3.762;2023-06-19T00:21:52;12.55;;;6.22;;
78646;SDS011;67961;43.460;3.762;2023-06-19T00:24:22;13.25;;;6.15;;
78646;SDS011;67961;43.460;3.762;2023-06-19T00:26:48;13.43;;;5.68;;
78646;SDS011;67961;43.460;3.762;2023-06-19T00:29:14;10.88;;;6.15;;
78646;SDS011;67961;43.460;3.762;2023-06-19T00:31:40;11.65;;;5.63;;
78646;SDS011;67961;43.460;3.762;2023-06-19T00:34:06;10.80;;;6.10;;
78646;SDS011;67961;43.460;3.762;2023-06-19T00:36:32;10.48;;;5.43;;
78646;SDS011;67961;43.460;3.762;2023-06-19T00:39:05;11.95;;;6.68;;
78646;SDS011;67961;43.460;3.762;2023-06-19T00:41:34;9.75;;;5.85;;
78646;SDS011;67961;43.460;3.762;2023-06-19T00:44:00;11.73;;;6.53;;
78646;SDS011;67961;43.460;3.762;2023-06-19T00:46:26;9.32;;;6.40;;
78646;SDS011;67961;43.460;3.762;2023-06-19T00:48:53;9.15;;;6.07;;
78646;SDS011;67961;43.460;3.762;2023-06-19T00:51:19;13.38;;;6.03;;
78646;SDS011;67961;43.460;3.762;2023-06-19T00:53:45;12.13;;;6.55;;
78646;SDS011;67961;43.460;3.762;2023-06-19T00:56:11;12.70;;;6.43;;
78646;SDS011;67961;43.460;3.762;2023-06-19T00:58:37;13.68;;;6.22;;
78646;SDS011;67961;43.460;3.762;2023-06-19T01:01:03;11.40;;;5.90;;
78646;SDS011;67961;43.460;3.762;2023-06-19T01:03:30;16.13;;;6.28;;
78646;SDS011;67961;43.460;3.762;2023-06-19T01:05:56;12.07;;;6.32;;
78646;SDS011;67961;43.460;3.762;2023-06-19T01:08:43;8.98;;;6.00;;
78646;SDS011;67961;43.460;3.762;2023-06-19T01:11:09;13.85;;;6.90;;
78646;SDS011;67961;43.460;3.762;2023-06-19T01:13:58;13.43;;;6.28;;
78646;SDS011;67961;43.460;3.762;2023-06-19T01:16:28;12.90;;;6.80;;
78646;SDS011;67961;43.460;3.762;2023-06-19T01:18:55;13.68;;;6.45;;
78646;SDS011;67961;43.460;3.762;2023-06-19T01:21:21;12.18;;;6.88;;
78646;SDS011;67961;43.460;3.762;2023-06-19T01:23:47;10.95;;;6.38;;
78646;SDS011;67961;43.460;3.762;2023-06-19T01:26:13;17.70;;;6.40;;
78646;SDS011;67961;43.460;3.762;2023-06-19T01:28:40;18.33;;;7.28;;
78646;SDS011;67961;43.460;3.762;2023-06-19T01:31:08;11.15;;;6.97;;
78646;SDS011;67961;43.460;3.762;2023-06-19T01:33:37;11.18;;;6.90;;
78646;SDS011;67961;43.460;3.762;2023-06-19T01:36:03;13.60;;;6.78;;
78646;SDS011;67961;43.460;3.762;2023-06-19T01:38:30;13.85;;;7.65;;
78646;SDS011;67961;43.460;3.762;2023-06-19T01:40:56;12.55;;;7.35;;
78646;SDS011;67961;43.460;3.762;2023-06-19T01:43:23;10.85;;;6.65;;
78646;SDS011;67961;43.460;3.762;2023-06-19T01:45:50;14.15;;;7.25;;
78646;SDS011;67961;43.460;3.762;2023-06-19T01:48:17;12.38;;;6.95;;
78646;SDS011;67961;43.460;3.762;2023-06-19T01:50:46;11.82;;;7.32;;
78646;SDS011;67961;43.460;3.762;2023-06-19T01:53:13;10.93;;;7.15;;
78646;SDS011;67961;43.460;3.762;2023-06-19T01:55:39;16.75;;;7.03;;
78646;SDS011;67961;43.460;3.762;2023-06-19T01:58:05;10.75;;;7.30;;
78646;SDS011;67961;43.460;3.762;2023-06-19T02:00:32;12.18;;;7.28;;
78646;SDS011;67961;43.460;3.762;2023-06-19T02:03:00;11.32;;;7.00;;
78646;SDS011;67961;43.460;3.762;2023-06-19T02:05:26;11.02;;;7.35;;
78646;SDS011;67961;43.460;3.762;2023-06-19T02:07:55;10.73;;;7.18;;
78646;SDS011;67961;43.460;3.762;2023-06-19T02:10:21;11.05;;;7.00;;
78646;SDS011;67961;43.460;3.762;2023-06-19T02:12:47;11.65;;;7.57;;
78646;SDS011;67961;43.460;3.762;2023-06-19T02:15:13;9.98;;;7.00;;
78646;SDS011;67961;43.460;3.762;2023-06-19T02:17:39;12.40;;;6.78;;
78646;SDS011;67961;43.460;3.762;2023-06-19T02:20:07;9.90;;;6.40;;
78646;SDS011;67961;43.460;3.762;2023-06-19T02:22:34;9.70;;;6.95;;
78646;SDS011;67961;43.460;3.762;2023-06-19T02:25:00;11.05;;;7.10;;
78646;SDS011;67961;43.460;3.762;2023-06-19T02:27:27;12.55;;;7.68;;
78646;SDS011;67961;43.460;3.762;2023-06-19T02:29:53;12.15;;;7.53;;
78646;SDS011;67961;43.460;3.762;2023-06-19T02:32:19;10.57;;;7.28;;
78646;SDS011;67961;43.460;3.762;2023-06-19T02:34:45;9.57;;;6.70;;
78646;SDS011;67961;43.460;3.762;2023-06-19T02:37:11;12.65;;;6.68;;
78646;SDS011;67961;43.460;3.762;2023-06-19T02:39:37;11.13;;;6.72;;
78646;SDS011;67961;43.460;3.762;2023-06-19T02:42:03;14.02;;;7.18;;
78646;SDS011;67961;43.460;3.762;2023-06-19T02:44:32;18.05;;;7.55;;
78646;SDS011;67961;43.460;3.762;2023-06-19T02:46:58;10.57;;;6.70;;
78646;SDS011;67961;43.460;3.762;2023-06-19T02:49:24;12.20;;;7.47;;
78646;SDS011;67961;43.460;3.762;2023-06-19T02:51:50;14.70;;;8.32;;
78646;SDS011;67961;43.460;3.762;2023-06-19T02:54:16;12.45;;;7.35;;
78646;SDS011;67961;43.460;3.762;2023-06-19T02:56:42;10.38;;;7.38;;
78646;SDS011;67961;43.460;3.762;2023-06-19T02:59:08;12.48;;;7.18;;
78646;SDS011;67961;43.460;3.762;2023-06-19T03:01:34;12.95;;;7.28;;
78646;SDS011;67961;43.460;3.762;2023-06-19T03:04:00;9.68;;;7.63;;
78646;SDS011;67961;43.460;3.762;2023-06-19T03:06:26;12.82;;;7.78;;
78646;SDS011;67961;43.460;3.762;2023-06-19T03:08:53;10.63;;;7.47;;
78646;SDS011;67961;43.460;3.762;2023-06-19T03:11:19;10.25;;;7.88;;
78646;SDS011;67961;43.460;3.762;2023-06-19T03:16:11;14.65;;;7.63;;
78646;SDS011;67961;43.460;3.762;2023-06-19T03:18:37;12.40;;;8.13;;
78646;SDS011;67961;43.460;3.762;2023-06-19T03:21:03;10.48;;;6.95;;
78646;SDS011;67961;43.460;3.762;2023-06-19T03:23:29;12.95;;;7.70;;
78646;SDS011;67961;43.460;3.762;2023-06-19T03:25:55;14.07;;;8.05;;
78646;SDS011;67961;43.460;3.762;2023-06-19T03:28:23;11.85;;;7.30;;
78646;SDS011;67961;43.460;3.762;2023-06-19T03:30:49;13.43;;;7.85;;
78646;SDS011;67961;43.460;3.762;2023-06-19T03:33:15;13.18;;;7.85;;
78646;SDS011;67961;43.460;3.762;2023-06-19T03:35:41;11.15;;;7.95;;
78646;SDS011;67961;43.460;3.762;2023-06-19T03:38:07;9.93;;;7.40;;
78646;SDS011;67961;43.460;3.762;2023-06-19T03:40:33;11.98;;;8.35;;
78646;SDS011;67961;43.460;3.762;2023-06-19T03:42:59;13.70;;;8.32;;
78646;SDS011;67961;43.460;3.762;2023-06-19T03:45:25;11.88;;;7.65;;
78646;SDS011;67961;43.460;3.762;2023-06-19T03:47:51;13.38;;;8.90;;
78646;SDS011;67961;43.460;3.762;2023-06-19T03:50:17;15.25;;;7.97;;
78646;SDS011;67961;43.460;3.762;2023-06-19T03:52:43;11.45;;;8.07;;
78646;SDS011;67961;43.460;3.762;2023-06-19T03:55:09;13.30;;;8.82;;
78646;SDS011;67961;43.460;3.762;2023-06-19T03:57:35;15.13;;;8.85;;
78646;SDS011;67961;43.460;3.762;2023-06-19T04:00:02;11.65;;;8.10;;
78646;SDS011;67961;43.460;3.762;2023-06-19T04:02:32;11.35;;;8.23;;
78646;SDS011;67961;43.460;3.762;2023-06-19T04:04:58;12.10;;;8.77;;
78646;SDS011;67961;43.460;3.762;2023-06-19T04:07:24;13.30;;;8.23;;
78646;SDS011;67961;43.460;3.762;2023-06-19T04:09:50;9.45;;;8.45;;
78646;SDS011;67961;43.460;3.762;2023-06-19T04:12:16;11.18;;;8.70;;
78646;SDS011;67961;43.460;3.762;2023-06-19T04:14:42;11.38;;;8.35;;
78646;SDS011;67961;43.460;3.762;2023-06-19T04:17:08;14.23;;;9.13;;
78646;SDS011;67961;43.460;3.762;2023-06-19T04:19:34;12.02;;;9.30;;
78646;SDS011;67961;43.460;3.762;2023-06-19T04:22:01;13.52;;;9.30;;
78646;SDS011;67961;43.460;3.762;2023-06-19T04:24:27;15.90;;;10.60;;
78646;SDS011;67961;43.460;3.762;2023-06-19T04:26:53;16.80;;;11.02;;
78646;SDS011;67961;43.460;3.762;2023-06-19T04:29:19;19.10;;;11.57;;
78646;SDS011;67961;43.460;3.762;2023-06-19T04:31:45;16.80;;;10.88;;
78646;SDS011;67961;43.460;3.762;2023-06-19T04:34:15;13.20;;;11.48;;
78646;SDS011;67961;43.460;3.762;2023-06-19T04:36:42;17.77;;;10.88;;
78646;SDS011;67961;43.460;3.762;2023-06-19T04:39:09;14.02;;;11.60;;
78646;SDS011;67961;43.460;3.762;2023-06-19T04:41:35;14.00;;;10.88;;
78646;SDS011;67961;43.460;3.762;2023-06-19T04:44:12;13.23;;;10.15;;
78646;SDS011;67961;43.460;3.762;2023-06-19T04:46:38;18.02;;;11.43;;
78646;SDS011;67961;43.460;3.762;2023-06-19T04:49:04;23.30;;;11.00;;
78646;SDS011;67961;43.460;3.762;2023-06-19T04:51:31;20.10;;;11.93;;
78646;SDS011;67961;43.460;3.762;2023-06-19T04:53:58;30.88;;;13.02;;
78646;SDS011;67961;43.460;3.762;2023-06-19T04:56:24;17.35;;;11.88;;
78646;SDS011;67961;43.460;3.762;2023-06-19T04:58:50;17.33;;;10.93;;
78646;SDS011;67961;43.460;3.762;2023-06-19T05:01:16;15.10;;;11.30;;
78646;SDS011;67961;43.460;3.762;2023-06-19T05:03:43;19.92;;;12.25;;
78646;SDS011;67961;43.460;3.762;2023-06-19T05:06:10;17.35;;;12.45;;
78646;SDS011;67961;43.460;3.762;2023-06-19T05:08:37;30.73;;;12.85;;
78646;SDS011;67961;43.460;3.762;2023-06-19T05:11:03;14.70;;;12.10;;
78646;SDS011;67961;43.460;3.762;2023-06-19T05:13:29;25.00;;;12.57;;
78646;SDS011;67961;43.460;3.762;2023-06-19T05:15:55;17.25;;;12.30;;
78646;SDS011;67961;43.460;3.762;2023-06-19T05:18:21;24.05;;;13.15;;
78646;SDS011;67961;43.460;3.762;2023-06-19T05:20:47;23.23;;;12.88;;
78646;SDS011;67961;43.460;3.762;2023-06-19T05:23:13;20.20;;;13.02;;
78646;SDS011;67961;43.460;3.762;2023-06-19T05:25:39;21.83;;;13.52;;
78646;SDS011;67961;43.460;3.762;2023-06-19T05:28:07;14.90;;;12.13;;
78646;SDS011;67961;43.460;3.762;2023-06-19T05:30:36;20.05;;;11.65;;
78646;SDS011;67961;43.460;3.762;2023-06-19T05:33:02;25.63;;;12.57;;
78646;SDS011;67961;43.460;3.762;2023-06-19T05:35:28;14.80;;;11.32;;
78646;SDS011;67961;43.460;3.762;2023-06-19T05:37:55;18.00;;;11.88;;
78646;SDS011;67961;43.460;3.762;2023-06-19T05:40:21;18.88;;;12.27;;
78646;SDS011;67961;43.460;3.762;2023-06-19T05:42:47;19.13;;;12.38;;
78646;SDS011;67961;43.460;3.762;2023-06-19T05:45:13;24.17;;;12.65;;
78646;SDS011;67961;43.460;3.762;2023-06-19T05:47:39;22.73;;;14.25;;
78646;SDS011;67961;43.460;3.762;2023-06-19T05:50:05;16.65;;;12.90;;
78646;SDS011;67961;43.460;3.762;2023-06-19T05:52:32;19.55;;;13.23;;
78646;SDS011;67961;43.460;3.762;2023-06-19T05:54:58;20.90;;;14.25;;
78646;SDS011;67961;43.460;3.762;2023-06-19T05:57:26;23.15;;;13.30;;
78646;SDS011;67961;43.460;3.762;2023-06-19T05:59:52;19.20;;;12.98;;
78646;SDS011;67961;43.460;3.762;2023-06-19T06:02:19;19.17;;;13.20;;
78646;SDS011;67961;43.460;3.762;2023-06-19T06:04:45;18.63;;;13.20;;
78646;SDS011;67961;43.460;3.762;2023-06-19T06:07:11;18.80;;;13.18;;
78646;SDS011;67961;43.460;3.762;2023-06-19T06:09:38;21.73;;;13.00;;
78646;SDS011;67961;43.460;3.762;2023-06-19T06:12:04;17.92;;;13.77;;
78646;SDS011;67961;43.460;3.762;2023-06-19T06:14:31;22.88;;;13.10;;
78646;SDS011;67961;43.460;3.762;2023-06-19T06:16:57;19.30;;;13.57;;
78646;SDS011;67961;43.460;3.762;2023-06-19T06:19:23;15.68;;;11.93;;
78646;SDS011;67961;43.460;3.762;2023-06-19T06:21:49;16.45;;;12.68;;
78646;SDS011;67961;43.460;3.762;2023-06-19T06:24:15;15.75;;;13.02;;
78646;SDS011;67961;43.460;3.762;2023-06-19T06:26:41;15.27;;;12.00;;
78646;SDS011;67961;43.460;3.762;2023-06-19T06:29:08;18.17;;;12.07;;
78646;SDS011;67961;43.460;3.762;2023-06-19T06:31:34;19.15;;;12.15;;
78646;SDS011;67961;43.460;3.762;2023-06-19T06:34:00;17.92;;;11.02;;
78646;SDS011;67961;43.460;3.762;2023-06-19T06:36:26;15.70;;;11.82;;
78646;SDS011;67961;43.460;3.762;2023-06-19T06:38:52;20.63;;;12.75;;
78646;SDS011;67961;43.460;3.762;2023-06-19T06:41:18;17.75;;;12.02;;
78646;SDS011;67961;43.460;3.762;2023-06-19T06:43:44;17.95;;;10.25;;
78646;SDS011;67961;43.460;3.762;2023-06-19T06:46:10;12.02;;;10.18;;
78646;SDS011;67961;43.460;3.762;2023-06-19T06:48:36;19.30;;;10.43;;
78646;SDS011;67961;43.460;3.762;2023-06-19T06:51:03;14.38;;;10.48;;
78646;SDS011;67961;43.460;3.762;2023-06-19T06:53:29;15.02;;;10.18;;
78646;SDS011;67961;43.460;3.762;2023-06-19T06:55:57;11.23;;;9.63;;
78646;SDS011;67961;43.460;3.762;2023-06-19T06:58:24;14.25;;;9.70;;
78646;SDS011;67961;43.460;3.762;2023-06-19T07:00:50;16.95;;;9.50;;
78646;SDS011;67961;43.460;3.762;2023-06-19T07:03:16;11.00;;;8.40;;
78646;SDS011;67961;43.460;3.762;2023-06-19T07:05:46;11.48;;;8.02;;
78646;SDS011;67961;43.460;3.762;2023-06-19T07:08:12;16.88;;;9.07;;
78646;SDS011;67961;43.460;3.762;2023-06-19T07:10:38;17.50;;;8.80;;
78646;SDS011;67961;43.460;3.762;2023-06-19T07:13:04;13.32;;;9.88;;
78646;SDS011;67961;43.460;3.762;2023-06-19T07:15:30;13.93;;;7.93;;
78646;SDS011;67961;43.460;3.762;2023-06-19T07:17:56;13.73;;;7.88;;
78646;SDS011;67961;43.460;3.762;2023-06-19T07:20:22;16.52;;;8.07;;
78646;SDS011;67961;43.460;3.762;2023-06-19T07:22:51;13.23;;;7.65;;
78646;SDS011;67961;43.460;3.762;2023-06-19T07:25:17;13.65;;;6.63;;
78646;SDS011;67961;43.460;3.762;2023-06-19T07:27:43;10.05;;;7.50;;
78646;SDS011;67961;43.460;3.762;2023-06-19T07:30:09;14.25;;;7.18;;
78646;SDS011;67961;43.460;3.762;2023-06-19T07:32:38;10.80;;;7.20;;
78646;SDS011;67961;43.460;3.762;2023-06-19T07:35:04;9.30;;;7.20;;
78646;SDS011;67961;43.460;3.762;2023-06-19T07:37:31;11.10;;;7.70;;
78646;SDS011;67961;43.460;3.762;2023-06-19T07:39:57;10.60;;;7.20;;
78646;SDS011;67961;43.460;3.762;2023-06-19T07:42:23;11.63;;;6.75;;
78646;SDS011;67961;43.460;3.762;2023-06-19T07:44:49;16.98;;;6.72;;
78646;SDS011;67961;43.460;3.762;2023-06-19T07:47:15;12.65;;;6.53;;
78646;SDS011;67961;43.460;3.762;2023-06-19T07:49:43;10.13;;;6.60;;
78646;SDS011;67961;43.460;3.762;2023-06-19T07:52:10;11.25;;;6.35;;
78646;SDS011;67961;43.460;3.762;2023-06-19T07:54:36;11.70;;;6.28;;
78646;SDS011;67961;43.460;3.762;2023-06-19T07:57:02;9.63;;;6.75;;
78646;SDS011;67961;43.460;3.762;2023-06-19T07:59:28;12.10;;;5.88;;
78646;SDS011;67961;43.460;3.762;2023-06-19T08:01:54;7.85;;;5.75;;
78646;SDS011;67961;43.460;3.762;2023-06-19T08:04:20;9.95;;;6.03;;
78646;SDS011;67961;43.460;3.762;2023-06-19T08:06:46;8.80;;;5.60;;
78646;SDS011;67961;43.460;3.762;2023-06-19T08:09:12;10.80;;;5.80;;
78646;SDS011;67961;43.460;3.762;2023-06-19T08:11:38;6.90;;;5.28;;
78646;SDS011;67961;43.460;3.762;2023-06-19T08:14:04;22.02;;;5.97;;
78646;SDS011;67961;43.460;3.762;2023-06-19T08:16:30;9.93;;;5.68;;
78646;SDS011;67961;43.460;3.762;2023-06-19T08:18:56;11.77;;;5.45;;
78646;SDS011;67961;43.460;3.762;2023-06-19T08:21:22;9.43;;;5.63;;
78646;SDS011;67961;43.460;3.762;2023-06-19T08:23:49;9.93;;;5.30;;
78646;SDS011;67961;43.460;3.762;2023-06-19T08:26:15;7.15;;;5.07;;
78646;SDS011;67961;43.460;3.762;2023-06-19T08:28:42;11.73;;;6.07;;
78646;SDS011;67961;43.460;3.762;2023-06-19T08:31:09;12.23;;;6.32;;
78646;SDS011;67961;43.460;3.762;2023-06-19T08:33:35;12.45;;;6.13;;
78646;SDS011;67961;43.460;3.762;2023-06-19T08:36:02;9.13;;;5.07;;
78646;SDS011;67961;43.460;3.762;2023-06-19T08:38:28;8.32;;;5.50;;
78646;SDS011;67961;43.460;3.762;2023-06-19T08:40:55;11.35;;;5.70;;
78646;SDS011;67961;43.460;3.762;2023-06-19T08:43:21;8.35;;;5.40;;
78646;SDS011;67961;43.460;3.762;2023-06-19T08:46:04;8.15;;;5.20;;
78646;SDS011;67961;43.460;3.762;2023-06-19T08:48:34;10.77;;;5.78;;
78646;SDS011;67961;43.460;3.762;2023-06-19T08:51:00;9.77;;;5.93;;
78646;SDS011;67961;43.460;3.762;2023-06-19T08:53:26;11.32;;;5.63;;
78646;SDS011;67961;43.460;3.762;2023-06-19T08:55:52;13.23;;;5.82;;
78646;SDS011;67961;43.460;3.762;2023-06-19T08:58:21;9.55;;;5.40;;
78646;SDS011;67961;43.460;3.762;2023-06-19T09:00:48;10.35;;;5.60;;
78646;SDS011;67961;43.460;3.762;2023-06-19T09:03:19;13.13;;;6.15;;
78646;SDS011;67961;43.460;3.762;2023-06-19T09:05:45;8.73;;;5.82;;
78646;SDS011;67961;43.460;3.762;2023-06-19T09:08:15;11.25;;;5.95;;
78646;SDS011;67961;43.460;3.762;2023-06-19T09:10:41;12.10;;;6.07;;
78646;SDS011;67961;43.460;3.762;2023-06-19T09:13:07;9.10;;;6.20;;
78646;SDS011;67961;43.460;3.762;2023-06-19T09:15:37;12.07;;;6.00;;
78646;SDS011;67961;43.460;3.762;2023-06-19T09:18:04;12.35;;;6.75;;
78646;SDS011;67961;43.460;3.762;2023-06-19T09:20:30;12.13;;;6.60;;
78646;SDS011;67961;43.460;3.762;2023-06-19T09:22:57;11.05;;;6.65;;
78646;SDS011;67961;43.460;3.762;2023-06-19T09:25:23;10.68;;;6.63;;
78646;SDS011;67961;43.460;3.762;2023-06-19T09:27:51;11.65;;;6.93;;
78646;SDS011;67961;43.460;3.762;2023-06-19T09:30:18;10.98;;;7.55;;
78646;SDS011;67961;43.460;3.762;2023-06-19T09:32:44;14.50;;;7.10;;
78646;SDS011;67961;43.460;3.762;2023-06-19T09:35:10;11.90;;;6.75;;
78646;SDS011;67961;43.460;3.762;2023-06-19T09:37:36;11.38;;;6.82;;
78646;SDS011;67961;43.460;3.762;2023-06-19T09:40:04;10.88;;;6.50;;
78646;SDS011;67961;43.460;3.762;2023-06-19T09:42:37;10.63;;;6.55;;
78646;SDS011;67961;43.460;3.762;2023-06-19T09:45:07;11.32;;;7.22;;
78646;SDS011;67961;43.460;3.762;2023-06-19T09:47:37;8.88;;;6.43;;
78646;SDS011;67961;43.460;3.762;2023-06-19T09:50:04;13.77;;;5.93;;
78646;SDS011;67961;43.460;3.762;2023-06-19T09:52:31;7.75;;;5.32;;
78646;SDS011;67961;43.460;3.762;2023-06-19T09:54:57;8.65;;;5.70;;
78646;SDS011;67961;43.460;3.762;2023-06-19T09:57:23;11.15;;;5.35;;
78646;SDS011;67961;43.460;3.762;2023-06-19T09:59:50;10.32;;;5.47;;
78646;SDS011;67961;43.460;3.762;2023-06-19T10:02:18;10.73;;;5.57;;
78646;SDS011;67961;43.460;3.762;2023-06-19T10:04:49;10.88;;;5.32;;
78646;SDS011;67961;43.460;3.762;2023-06-19T10:07:19;8.45;;;5.55;;
78646;SDS011;67961;43.460;3.762;2023-06-19T10:10:46;9.20;;;4.85;;
78646;SDS011;67961;43.460;3.762;2023-06-19T10:12:42;12.85;;;5.40;;
78646;SDS011;67961;43.460;3.762;2023-06-19T10:15:19;10.00;;;5.05;;
78646;SDS011;67961;43.460;3.762;2023-06-19T10:22:57;9.07;;;6.05;;
78646;SDS011;67961;43.460;3.762;2023-06-19T10:25:24;12.52;;;6.00;;
78646;SDS011;67961;43.460;3.762;2023-06-19T10:27:52;13.25;;;6.18;;
78646;SDS011;67961;43.460;3.762;2023-06-19T10:30:19;11.77;;;5.93;;
78646;SDS011;67961;43.460;3.762;2023-06-19T10:32:46;16.42;;;7.72;;
78646;SDS011;67961;43.460;3.762;2023-06-19T10:35:13;14.15;;;6.60;;
78646;SDS011;67961;43.460;3.762;2023-06-19T10:37:39;10.63;;;5.57;;
78646;SDS011;67961;43.460;3.762;2023-06-19T10:40:05;11.93;;;6.25;;
78646;SDS011;67961;43.460;3.762;2023-06-19T10:42:38;16.27;;;6.40;;
78646;SDS011;67961;43.460;3.762;2023-06-19T10:45:05;11.88;;;6.15;;
78646;SDS011;67961;43.460;3.762;2023-06-19T10:47:34;12.13;;;6.18;;
78646;SDS011;67961;43.460;3.762;2023-06-19T10:50:00;12.55;;;5.75;;
78646;SDS011;67961;43.460;3.762;2023-06-19T10:52:30;13.15;;;6.28;;
78646;SDS011;67961;43.460;3.762;2023-06-19T10:54:56;19.30;;;7.20;;
78646;SDS011;67961;43.460;3.762;2023-06-19T10:57:29;57.85;;;19.17;;
78646;SDS011;67961;43.460;3.762;2023-06-19T10:59:55;15.95;;;7.82;;
78646;SDS011;67961;43.460;3.762;2023-06-19T11:02:21;11.30;;;6.47;;
78646;SDS011;67961;43.460;3.762;2023-06-19T11:04:47;20.48;;;8.23;;
78646;SDS011;67961;43.460;3.762;2023-06-19T11:07:13;18.35;;;7.68;;
78646;SDS011;67961;43.460;3.762;2023-06-19T11:09:39;13.02;;;6.88;;
78646;SDS011;67961;43.460;3.762;2023-06-19T11:12:05;19.48;;;8.35;;
78646;SDS011;67961;43.460;3.762;2023-06-19T11:14:33;14.25;;;6.97;;
78646;SDS011;67961;43.460;3.762;2023-06-19T11:17:05;11.97;;;6.57;;
78646;SDS011;67961;43.460;3.762;2023-06-19T11:19:31;8.90;;;6.32;;
78646;SDS011;67961;43.460;3.762;2023-06-19T11:22:03;12.40;;;6.00;;
78646;SDS011;67961;43.460;3.762;2023-06-19T11:24:29;13.45;;;6.57;;
78646;SDS011;67961;43.460;3.762;2023-06-19T11:26:56;15.48;;;7.47;;
78646;SDS011;67961;43.460;3.762;2023-06-19T11:29:33;11.60;;;6.10;;
78646;SDS011;67961;43.460;3.762;2023-06-19T11:32:12;11.93;;;5.55;;
78646;SDS011;67961;43.460;3.762;2023-06-19T11:34:39;11.15;;;5.47;;
78646;SDS011;67961;43.460;3.762;2023-06-19T11:37:14;8.65;;;5.53;;
78646;SDS011;67961;43.460;3.762;2023-06-19T11:39:43;10.70;;;5.70;;
78646;SDS011;67961;43.460;3.762;2023-06-19T11:42:09;10.50;;;5.50;;
78646;SDS011;67961;43.460;3.762;2023-06-19T11:44:35;11.48;;;6.28;;
78646;SDS011;67961;43.460;3.762;2023-06-19T11:47:18;8.65;;;5.25;;
78646;SDS011;67961;43.460;3.762;2023-06-19T11:49:44;14.75;;;5.47;;
78646;SDS011;67961;43.460;3.762;2023-06-19T11:52:13;11.52;;;5.93;;
78646;SDS011;67961;43.460;3.762;2023-06-19T11:54:39;9.00;;;4.70;;
78646;SDS011;67961;43.460;3.762;2023-06-19T11:57:05;7.55;;;5.30;;
78646;SDS011;67961;43.460;3.762;2023-06-19T11:59:31;9.05;;;5.30;;
78646;SDS011;67961;43.460;3.762;2023-06-19T12:01:57;8.45;;;4.85;;
78646;SDS011;67961;43.460;3.762;2023-06-19T12:04:24;11.63;;;5.10;;
78646;SDS011;67961;43.460;3.762;2023-06-19T12:06:51;7.30;;;5.07;;
78646;SDS011;67961;43.460;3.762;2023-06-19T12:09:18;9.50;;;5.32;;
78646;SDS011;67961;43.460;3.762;2023-06-19T12:11:44;11.75;;;6.10;;
78646;SDS011;67961;43.460;3.762;2023-06-19T12:14:10;12.13;;;5.65;;
78646;SDS011;67961;43.460;3.762;2023-06-19T12:16:36;10.15;;;5.63;;
78646;SDS011;67961;43.460;3.762;2023-06-19T12:19:02;9.63;;;5.70;;
78646;SDS011;67961;43.460;3.762;2023-06-19T12:21:28;10.77;;;5.50;;
78646;SDS011;67961;43.460;3.762;2023-06-19T12:23:54;10.25;;;5.82;;
78646;SDS011;67961;43.460;3.762;2023-06-19T12:26:20;8.75;;;5.43;;
78646;SDS011;67961;43.460;3.762;2023-06-19T12:28:46;10.95;;;5.65;;
78646;SDS011;67961;43.460;3.762;2023-06-19T12:31:12;12.60;;;5.90;;
78646;SDS011;67961;43.460;3.762;2023-06-19T12:33:38;11.25;;;6.22;;
78646;SDS011;67961;43.460;3.762;2023-06-19T12:36:09;12.00;;;5.65;;
78646;SDS011;67961;43.460;3.762;2023-06-19T12:38:37;13.02;;;6.72;;
78646;SDS011;67961;43.460;3.762;2023-06-19T12:41:04;14.38;;;5.72;;
78646;SDS011;67961;43.460;3.762;2023-06-19T12:43:30;12.55;;;6.13;;
78646;SDS011;67961;43.460;3.762;2023-06-19T12:45:59;11.95;;;5.88;;
78646;SDS011;67961;43.460;3.762;2023-06-19T12:48:26;10.70;;;5.65;;
78646;SDS011;67961;43.460;3.762;2023-06-19T12:50:52;19.25;;;7.13;;
78646;SDS011;67961;43.460;3.762;2023-06-19T12:53:18;9.43;;;5.38;;
78646;SDS011;67961;43.460;3.762;2023-06-19T12:55:46;8.15;;;5.30;;
78646;SDS011;67961;43.460;3.762;2023-06-19T12:58:12;16.48;;;5.95;;
78646;SDS011;67961;43.460;3.762;2023-06-19T13:00:38;15.27;;;6.97;;
78646;SDS011;67961;43.460;3.762;2023-06-19T13:03:04;10.18;;;5.57;;
78646;SDS011;67961;43.460;3.762;2023-06-19T13:05:30;9.38;;;5.35;;
78646;SDS011;67961;43.460;3.762;2023-06-19T13:07:56;10.52;;;5.35;;
78646;SDS011;67961;43.460;3.762;2023-06-19T13:10:22;13.30;;;5.75;;
78646;SDS011;67961;43.460;3.762;2023-06-19T13:12:48;11.90;;;5.15;;
78646;SDS011;67961;43.460;3.762;2023-06-19T13:15:14;12.80;;;6.20;;
78646;SDS011;67961;43.460;3.762;2023-06-19T13:17:40;10.50;;;5.30;;
78646;SDS011;67961;43.460;3.762;2023-06-19T13:20:06;14.35;;;5.22;;
78646;SDS011;67961;43.460;3.762;2023-06-19T13:22:33;15.82;;;5.78;;
78646;SDS011;67961;43.460;3.762;2023-06-19T13:24:59;10.07;;;5.15;;
78646;SDS011;67961;43.460;3.762;2023-06-19T13:27:26;11.05;;;5.15;;
78646;SDS011;67961;43.460;3.762;2023-06-19T13:29:53;9.50;;;4.95;;
78646;SDS011;67961;43.460;3.762;2023-06-19T13:32:19;10.48;;;5.15;;
78646;SDS011;67961;43.460;3.762;2023-06-19T13:34:45;9.68;;;5.53;;
78646;SDS011;67961;43.460;3.762;2023-06-19T13:37:11;11.57;;;5.43;;
78646;SDS011;67961;43.460;3.762;2023-06-19T13:39:37;17.90;;;5.65;;
78646;SDS011;67961;43.460;3.762;2023-06-19T13:42:04;11.20;;;5.60;;
78646;SDS011;67961;43.460;3.762;2023-06-19T13:44:31;12.07;;;5.57;;
78646;SDS011;67961;43.460;3.762;2023-06-19T13:46:57;9.40;;;5.32;;
78646;SDS011;67961;43.460;3.762;2023-06-19T13:49:23;11.10;;;5.45;;
78646;SDS011;67961;43.460;3.762;2023-06-19T13:51:49;15.27;;;5.20;;
78646;SDS011;67961;43.460;3.762;2023-06-19T13:54:15;10.35;;;5.55;;
78646;SDS011;67961;43.460;3.762;2023-06-19T13:56:41;12.45;;;5.13;;
78646;SDS011;67961;43.460;3.762;2023-06-19T13:59:07;10.80;;;5.63;;
78646;SDS011;67961;43.460;3.762;2023-06-19T14:01:33;14.13;;;5.22;;
78646;SDS011;67961;43.460;3.762;2023-06-19T14:04:00;19.98;;;6.80;;
78646;SDS011;67961;43.460;3.762;2023-06-19T14:06:25;9.65;;;5.30;;
78646;SDS011;67961;43.460;3.762;2023-06-19T14:08:51;11.88;;;5.38;;
78646;SDS011;67961;43.460;3.762;2023-06-19T14:11:18;11.95;;;5.25;;
78646;SDS011;67961;43.460;3.762;2023-06-19T14:13:44;10.27;;;5.30;;
78646;SDS011;67961;43.460;3.762;2023-06-19T14:16:10;14.68;;;5.85;;
78646;SDS011;67961;43.460;3.762;2023-06-19T14:18:36;13.55;;;5.80;;
78646;SDS011;67961;43.460;3.762;2023-06-19T14:21:02;14.68;;;5.85;;
78646;SDS011;67961;43.460;3.762;2023-06-19T14:23:28;10.95;;;6.05;;
78646;SDS011;67961;43.460;3.762;2023-06-19T14:25:55;13.50;;;6.15;;
78646;SDS011;67961;43.460;3.762;2023-06-19T14:28:21;17.05;;;6.00;;
78646;SDS011;67961;43.460;3.762;2023-06-19T14:30:47;12.95;;;5.57;;
78646;SDS011;67961;43.460;3.762;2023-06-19T14:33:13;14.35;;;5.65;;
78646;SDS011;67961;43.460;3.762;2023-06-19T14:35:42;13.40;;;5.60;;
78646;SDS011;67961;43.460;3.762;2023-06-19T14:38:14;17.58;;;5.90;;
78646;SDS011;67961;43.460;3.762;2023-06-19T14:40:41;18.67;;;6.47;;